Date,TemperatureHighF,TemperatureAvgF,TemperatureLowF,DewpointHighF,DewpointAvgF,DewpointLowF,HumidityHigh,HumidityAvg,HumidityLow,PressureMaxIn,PressureMinIn,WindSpeedMaxMPH,WindSpeedAvgMPH,GustSpeedMaxMPH,PrecipitationSumIn
2013-3-1,44.5,38.9,28.7,33.0,28.6,25.0,91,68,54,29.94,29.84,9,2,15,0.00
2013-3-2,43.4,38.1,34.1,30.0,25.2,20.0,81,61,50,29.94,29.86,9,3,16,0.00
2013-3-3,44.3,35.3,25.7,25.0,20.4,16.0,82,56,41,30.00,29.88,14,4,19,0.00
2013-3-4,51.5,35.7,22.1,22.0,16.9,14.0,81,50,22,30.13,30.00,11,3,19,0.00
2013-3-5,50.6,40.0,27.1,42.0,33.5,22.0,95,80,39,30.11,29.64,11,2,16,0.48
2013-3-6,46.1,39.2,33.9,38.0,33.8,31.0,94,82,63,30.07,29.58,17,7,32,0.21
2013-3-7,49.2,41.0,29.9,34.0,30.0,26.0,91,66,49,30.26,30.06,14,3,18,0.00
2013-3-8,55.5,41.8,26.3,32.0,26.8,24.0,92,59,34,30.33,30.19,22,4,22,0.00
2013-3-9,63.0,43.9,26.4,33.0,28.6,24.0,91,61,25,30.38,30.26,7,2,13,0.00
2013-3-10,66.6,46.4,26.2,36.0,29.8,24.0,93,60,24,30.35,30.20,9,2,16,0.00
2013-3-11,66.8,51.6,32.4,54.0,42.8,29.0,91,73,56,30.25,29.93,14,3,22,0.00
2013-3-12,64.7,58.0,45.0,60.0,49.3,35.0,94,75,45,29.98,29.74,15,5,18,0.73
2013-3-13,53.4,42.0,29.2,35.0,28.4,19.0,93,62,38,30.17,29.98,16,4,23,0.00
2013-3-14,51.5,40.3,30.6,25.0,20.5,17.0,76,47,29,30.26,30.13,14,4,24,0.00
2013-3-15,62.9,43.2,23.7,37.0,28.7,21.0,90,61,37,30.19,29.89,14,2,22,0.00
2013-3-16,78.0,55.4,35.8,56.0,44.6,33.0,92,71,37,29.89,29.60,20,2,26,0.02
2013-3-17,53.5,44.6,38.7,52.0,41.8,37.0,94,90,83,30.24,29.82,11,4,16,0.05
2013-3-18,39.4,37.7,35.9,38.0,36.2,34.0,95,94,93,30.26,29.89,8,3,13,0.15
2013-3-19,66.0,49.9,36.5,45.0,29.2,11.0,95,56,19,30.05,29.84,15,4,22,0.00
2013-3-20,57.0,44.7,27.4,30.0,18.0,9.0,78,37,18,30.11,29.79,11,2,18,0.00
2013-3-21,48.9,37.9,29.8,29.0,17.2,11.0,61,44,31,30.01,29.77,18,6,22,0.00
2013-3-22,51.4,35.2,19.6,22.0,16.9,12.0,84,51,26,30.11,29.97,11,2,14,0.00
2013-3-23,57.8,41.2,25.0,34.0,27.0,21.0,88,62,31,30.09,29.93,5,1,10,0.00
2013-3-24,39.1,34.9,30.2,35.0,32.1,28.0,94,89,70,29.96,29.63,11,3,13,0.63
2013-3-25,47.5,39.1,32.8,38.0,30.6,25.0,95,74,47,29.81,29.58,12,3,21,0.08
2013-3-26,49.0,40.7,28.6,31.0,28.2,25.0,88,63,47,30.13,29.81,13,3,21,0.00
2013-3-27,50.6,38.9,26.1,30.0,26.1,23.0,91,63,37,30.25,30.13,12,3,22,0.00
2013-3-28,54.4,40.9,25.3,30.0,26.0,23.0,91,60,34,30.31,30.18,15,4,20,0.00
2013-3-29,61.9,43.7,28.5,35.0,28.4,24.0,88,60,25,30.35,30.17,13,2,14,0.00
2013-3-30,65.9,47.9,28.9,38.0,32.0,26.0,91,60,27,30.27,30.09,6,1,13,0.00
2013-3-31,65.0,52.7,41.9,57.0,48.1,36.0,94,85,71,30.10,29.80,6,1,13,0.26